sensor_id;sensor_type;location;lat;lon;timestamp;P1;durP1;ratioP1;P2;durP2;ratioP2
15716;SDS011;7960;50.908;4.204;2022-10-26T00:00:02;5.50;;;2.23;;
15716;SDS011;7960;50.908;4.204;2022-10-26T00:02:31;4.87;;;2.47;;
15716;SDS011;7960;50.908;4.204;2022-10-26T00:04:58;6.10;;;2.37;;
15716;SDS011;7960;50.908;4.204;2022-10-26T00:07:27;2.53;;;2.10;;
15716;SDS011;7960;50.908;4.204;2022-10-26T00:09:54;7.20;;;2.47;;
15716;SDS011;7960;50.908;4.204;2022-10-26T00:12:21;5.00;;;2.10;;
15716;SDS011;7960;50.908;4.204;2022-10-26T00:14:47;9.40;;;2.80;;
15716;SDS011;7960;50.908;4.204;2022-10-26T00:17:14;5.10;;;2.37;;
15716;SDS011;7960;50.908;4.204;2022-10-26T00:19:43;6.90;;;2.73;;
15716;SDS011;7960;50.908;4.204;2022-10-26T00:22:09;7.37;;;2.60;;
15716;SDS011;7960;50.908;4.204;2022-10-26T00:24:36;3.10;;;2.30;;
15716;SDS011;7960;50.908;4.204;2022-10-26T00:27:03;4.63;;;2.33;;
15716;SDS011;7960;50.908;4.204;2022-10-26T00:29:30;3.17;;;2.33;;
15716;SDS011;7960;50.908;4.204;2022-10-26T00:31:57;7.97;;;2.50;;
15716;SDS011;7960;50.908;4.204;2022-10-26T00:34:24;4.27;;;2.30;;
15716;SDS011;7960;50.908;4.204;2022-10-26T00:36:52;5.30;;;2.30;;
15716;SDS011;7960;50.908;4.204;2022-10-26T00:39:19;11.83;;;2.50;;
15716;SDS011;7960;50.908;4.204;2022-10-26T00:41:46;5.87;;;2.53;;
15716;SDS011;7960;50.908;4.204;2022-10-26T00:47:31;5.67;;;2.10;;
15716;SDS011;7960;50.908;4.204;2022-10-26T00:50:03;6.23;;;2.60;;
15716;SDS011;7960;50.908;4.204;2022-10-26T00:52:34;6.57;;;2.67;;
15716;SDS011;7960;50.908;4.204;2022-10-26T00:55:02;4.90;;;2.20;;
15716;SDS011;7960;50.908;4.204;2022-10-26T00:57:30;4.50;;;2.63;;
15716;SDS011;7960;50.908;4.204;2022-10-26T00:59:57;3.43;;;2.33;;
15716;SDS011;7960;50.908;4.204;2022-10-26T01:02:26;7.40;;;3.33;;
15716;SDS011;7960;50.908;4.204;2022-10-26T01:04:53;6.50;;;2.77;;
15716;SDS011;7960;50.908;4.204;2022-10-26T01:07:21;7.13;;;2.50;;
15716;SDS011;7960;50.908;4.204;2022-10-26T01:09:50;5.90;;;2.43;;
15716;SDS011;7960;50.908;4.204;2022-10-26T01:12:18;6.00;;;3.57;;
15716;SDS011;7960;50.908;4.204;2022-10-26T01:14:45;11.43;;;5.67;;
15716;SDS011;7960;50.908;4.204;2022-10-26T01:17:16;5.27;;;2.60;;
15716;SDS011;7960;50.908;4.204;2022-10-26T01:23:05;5.27;;;2.90;;
15716;SDS011;7960;50.908;4.204;2022-10-26T01:25:43;8.57;;;2.80;;
15716;SDS011;7960;50.908;4.204;2022-10-26T01:28:53;6.97;;;2.60;;
15716;SDS011;7960;50.908;4.204;2022-10-26T01:31:54;7.67;;;2.70;;
15716;SDS011;7960;50.908;4.204;2022-10-26T01:34:27;5.03;;;2.33;;
15716;SDS011;7960;50.908;4.204;2022-10-26T01:37:01;4.83;;;2.47;;
15716;SDS011;7960;50.908;4.204;2022-10-26T01:39:34;8.10;;;2.80;;
15716;SDS011;7960;50.908;4.204;2022-10-26T01:42:04;4.17;;;2.10;;
15716;SDS011;7960;50.908;4.204;2022-10-26T01:44:35;7.30;;;2.10;;
15716;SDS011;7960;50.908;4.204;2022-10-26T01:47:08;6.17;;;2.47;;
15716;SDS011;7960;50.908;4.204;2022-10-26T01:49:39;3.80;;;2.00;;
15716;SDS011;7960;50.908;4.204;2022-10-26T01:52:09;6.33;;;2.10;;
15716;SDS011;7960;50.908;4.204;2022-10-26T01:54:36;5.70;;;2.20;;
15716;SDS011;7960;50.908;4.204;2022-10-26T01:57:04;3.77;;;2.13;;
15716;SDS011;7960;50.908;4.204;2022-10-26T01:59:37;3.83;;;2.43;;
15716;SDS011;7960;50.908;4.204;2022-10-26T02:05:29;5.20;;;2.30;;
15716;SDS011;7960;50.908;4.204;2022-10-26T02:08:04;7.00;;;2.30;;
15716;SDS011;7960;50.908;4.204;2022-10-26T02:10:42;4.17;;;1.90;;
15716;SDS011;7960;50.908;4.204;2022-10-26T02:13:18;5.50;;;2.23;;
15716;SDS011;7960;50.908;4.204;2022-10-26T02:15:52;6.47;;;2.20;;
15716;SDS011;7960;50.908;4.204;2022-10-26T02:18:27;4.47;;;2.27;;
15716;SDS011;7960;50.908;4.204;2022-10-26T02:20:58;3.53;;;1.93;;
15716;SDS011;7960;50.908;4.204;2022-10-26T02:23:30;3.63;;;2.10;;
15716;SDS011;7960;50.908;4.204;2022-10-26T02:26:00;5.70;;;2.27;;
15716;SDS011;7960;50.908;4.204;2022-10-26T02:28:32;3.03;;;2.00;;
15716;SDS011;7960;50.908;4.204;2022-10-26T02:31:03;7.57;;;2.40;;
15716;SDS011;7960;50.908;4.204;2022-10-26T02:33:35;3.50;;;1.90;;
15716;SDS011;7960;50.908;4.204;2022-10-26T02:36:06;8.03;;;2.10;;
15716;SDS011;7960;50.908;4.204;2022-10-26T02:38:36;4.70;;;2.30;;
15716;SDS011;7960;50.908;4.204;2022-10-26T02:41:07;5.03;;;3.70;;
15716;SDS011;7960;50.908;4.204;2022-10-26T02:43:40;4.57;;;2.27;;
15716;SDS011;7960;50.908;4.204;2022-10-26T02:46:13;6.37;;;2.40;;
15716;SDS011;7960;50.908;4.204;2022-10-26T02:48:44;5.27;;;2.20;;
15716;SDS011;7960;50.908;4.204;2022-10-26T02:51:12;2.90;;;1.87;;
15716;SDS011;7960;50.908;4.204;2022-10-26T02:53:45;8.63;;;2.30;;
15716;SDS011;7960;50.908;4.204;2022-10-26T02:56:17;4.47;;;2.10;;
15716;SDS011;7960;50.908;4.204;2022-10-26T02:58:50;4.47;;;2.00;;
15716;SDS011;7960;50.908;4.204;2022-10-26T03:01:22;4.37;;;2.23;;
15716;SDS011;7960;50.908;4.204;2022-10-26T03:03:51;5.67;;;2.10;;
15716;SDS011;7960;50.908;4.204;2022-10-26T03:06:22;7.83;;;2.20;;
15716;SDS011;7960;50.908;4.204;2022-10-26T03:08:50;9.57;;;2.40;;
15716;SDS011;7960;50.908;4.204;2022-10-26T03:11:17;4.77;;;1.93;;
15716;SDS011;7960;50.908;4.204;2022-10-26T03:13:44;7.17;;;2.13;;
15716;SDS011;7960;50.908;4.204;2022-10-26T03:16:11;7.37;;;2.20;;
15716;SDS011;7960;50.908;4.204;2022-10-26T03:18:37;4.33;;;2.17;;
15716;SDS011;7960;50.908;4.204;2022-10-26T03:21:06;12.27;;;2.60;;
15716;SDS011;7960;50.908;4.204;2022-10-26T03:23:32;6.33;;;2.60;;
15716;SDS011;7960;50.908;4.204;2022-10-26T03:25:59;4.87;;;2.27;;
15716;SDS011;7960;50.908;4.204;2022-10-26T03:28:26;5.63;;;2.60;;
15716;SDS011;7960;50.908;4.204;2022-10-26T03:30:53;13.27;;;3.00;;
15716;SDS011;7960;50.908;4.204;2022-10-26T03:33:22;5.50;;;2.50;;
15716;SDS011;7960;50.908;4.204;2022-10-26T03:35:53;4.73;;;2.30;;
15716;SDS011;7960;50.908;4.204;2022-10-26T03:38:22;8.37;;;2.60;;
15716;SDS011;7960;50.908;4.204;2022-10-26T03:40:49;5.83;;;2.53;;
15716;SDS011;7960;50.908;4.204;2022-10-26T03:43:16;7.83;;;2.47;;
15716;SDS011;7960;50.908;4.204;2022-10-26T03:45:43;3.23;;;2.20;;
15716;SDS011;7960;50.908;4.204;2022-10-26T03:48:09;4.30;;;2.17;;
15716;SDS011;7960;50.908;4.204;2022-10-26T03:50:36;5.13;;;2.37;;
15716;SDS011;7960;50.908;4.204;2022-10-26T03:53:03;4.57;;;2.60;;
15716;SDS011;7960;50.908;4.204;2022-10-26T03:55:32;8.13;;;2.40;;
15716;SDS011;7960;50.908;4.204;2022-10-26T03:57:59;4.67;;;2.53;;
15716;SDS011;7960;50.908;4.204;2022-10-26T04:00:25;7.30;;;2.80;;
15716;SDS011;7960;50.908;4.204;2022-10-26T04:02:53;4.93;;;2.53;;
15716;SDS011;7960;50.908;4.204;2022-10-26T04:05:21;7.37;;;2.30;;
15716;SDS011;7960;50.908;4.204;2022-10-26T04:07:51;3.90;;;2.20;;
15716;SDS011;7960;50.908;4.204;2022-10-26T04:10:18;6.80;;;2.97;;
15716;SDS011;7960;50.908;4.204;2022-10-26T04:12:46;5.07;;;2.13;;
15716;SDS011;7960;50.908;4.204;2022-10-26T04:15:13;7.63;;;2.17;;
15716;SDS011;7960;50.908;4.204;2022-10-26T04:17:40;2.97;;;2.20;;
15716;SDS011;7960;50.908;4.204;2022-10-26T04:20:08;3.90;;;2.20;;
15716;SDS011;7960;50.908;4.204;2022-10-26T04:22:35;7.80;;;2.27;;
15716;SDS011;7960;50.908;4.204;2022-10-26T04:25:02;10.10;;;2.70;;
15716;SDS011;7960;50.908;4.204;2022-10-26T04:27:29;5.23;;;2.37;;
15716;SDS011;7960;50.908;4.204;2022-10-26T04:29:58;3.93;;;2.30;;
15716;SDS011;7960;50.908;4.204;2022-10-26T04:32:24;3.63;;;2.20;;
15716;SDS011;7960;50.908;4.204;2022-10-26T04:34:51;5.17;;;2.30;;
15716;SDS011;7960;50.908;4.204;2022-10-26T04:37:18;6.97;;;2.40;;
15716;SDS011;7960;50.908;4.204;2022-10-26T04:39:45;5.30;;;2.37;;
15716;SDS011;7960;50.908;4.204;2022-10-26T04:42:12;5.23;;;2.23;;
15716;SDS011;7960;50.908;4.204;2022-10-26T04:44:39;5.97;;;2.33;;
15716;SDS011;7960;50.908;4.204;2022-10-26T04:47:07;5.07;;;2.30;;
15716;SDS011;7960;50.908;4.204;2022-10-26T04:49:34;5.50;;;2.30;;
15716;SDS011;7960;50.908;4.204;2022-10-26T04:52:01;3.10;;;2.07;;
15716;SDS011;7960;50.908;4.204;2022-10-26T04:54:27;6.93;;;2.53;;
15716;SDS011;7960;50.908;4.204;2022-10-26T04:56:54;4.90;;;2.47;;
15716;SDS011;7960;50.908;4.204;2022-10-26T04:59:21;6.00;;;2.53;;
15716;SDS011;7960;50.908;4.204;2022-10-26T05:01:48;7.03;;;2.50;;
15716;SDS011;7960;50.908;4.204;2022-10-26T05:04:16;5.63;;;2.30;;
15716;SDS011;7960;50.908;4.204;2022-10-26T05:06:43;6.17;;;2.70;;
15716;SDS011;7960;50.908;4.204;2022-10-26T05:09:10;3.63;;;2.40;;
15716;SDS011;7960;50.908;4.204;2022-10-26T05:11:37;4.13;;;2.43;;
15716;SDS011;7960;50.908;4.204;2022-10-26T05:14:03;8.37;;;3.00;;
15716;SDS011;7960;50.908;4.204;2022-10-26T05:16:30;5.57;;;2.30;;
15716;SDS011;7960;50.908;4.204;2022-10-26T05:18:57;4.97;;;2.40;;
15716;SDS011;7960;50.908;4.204;2022-10-26T05:21:25;4.47;;;2.57;;
15716;SDS011;7960;50.908;4.204;2022-10-26T05:23:52;5.17;;;2.40;;
15716;SDS011;7960;50.908;4.204;2022-10-26T05:26:19;2.80;;;1.90;;
15716;SDS011;7960;50.908;4.204;2022-10-26T05:28:46;5.70;;;2.60;;
15716;SDS011;7960;50.908;4.204;2022-10-26T05:31:13;3.83;;;2.53;;
15716;SDS011;7960;50.908;4.204;2022-10-26T05:33:40;5.77;;;2.57;;
15716;SDS011;7960;50.908;4.204;2022-10-26T05:36:07;6.00;;;2.80;;
15716;SDS011;7960;50.908;4.204;2022-10-26T05:38:38;6.00;;;2.70;;
15716;SDS011;7960;50.908;4.204;2022-10-26T05:41:04;4.43;;;2.50;;
15716;SDS011;7960;50.908;4.204;2022-10-26T05:43:31;6.70;;;3.20;;
15716;SDS011;7960;50.908;4.204;2022-10-26T05:45:58;6.70;;;2.70;;
15716;SDS011;7960;50.908;4.204;2022-10-26T05:48:25;4.03;;;2.90;;
15716;SDS011;7960;50.908;4.204;2022-10-26T05:50:52;3.70;;;2.67;;
15716;SDS011;7960;50.908;4.204;2022-10-26T05:53:18;6.80;;;2.87;;
15716;SDS011;7960;50.908;4.204;2022-10-26T05:55:47;7.87;;;3.10;;
15716;SDS011;7960;50.908;4.204;2022-10-26T05:58:14;4.43;;;2.70;;
15716;SDS011;7960;50.908;4.204;2022-10-26T06:00:44;7.67;;;3.23;;
15716;SDS011;7960;50.908;4.204;2022-10-26T06:03:23;5.33;;;3.23;;
15716;SDS011;7960;50.908;4.204;2022-10-26T06:05:56;8.83;;;3.23;;
15716;SDS011;7960;50.908;4.204;2022-10-26T06:08:24;4.13;;;2.90;;
15716;SDS011;7960;50.908;4.204;2022-10-26T06:10:56;5.93;;;3.00;;
15716;SDS011;7960;50.908;4.204;2022-10-26T06:13:24;8.43;;;3.60;;
15716;SDS011;7960;50.908;4.204;2022-10-26T06:16:00;9.77;;;3.50;;
15716;SDS011;7960;50.908;4.204;2022-10-26T06:18:36;8.37;;;3.07;;
15716;SDS011;7960;50.908;4.204;2022-10-26T06:21:14;7.50;;;3.23;;
15716;SDS011;7960;50.908;4.204;2022-10-26T06:23:54;4.47;;;3.23;;
15716;SDS011;7960;50.908;4.204;2022-10-26T06:26:31;7.97;;;2.90;;
15716;SDS011;7960;50.908;4.204;2022-10-26T06:29:08;9.53;;;3.03;;
15716;SDS011;7960;50.908;4.204;2022-10-26T06:31:43;6.00;;;2.60;;
15716;SDS011;7960;50.908;4.204;2022-10-26T06:34:11;5.27;;;2.70;;
15716;SDS011;7960;50.908;4.204;2022-10-26T06:36:43;9.93;;;2.80;;
15716;SDS011;7960;50.908;4.204;2022-10-26T06:39:13;6.80;;;3.13;;
15716;SDS011;7960;50.908;4.204;2022-10-26T06:41:43;12.40;;;2.67;;
15716;SDS011;7960;50.908;4.204;2022-10-26T06:44:19;8.20;;;2.83;;
15716;SDS011;7960;50.908;4.204;2022-10-26T06:46:49;4.23;;;2.60;;
15716;SDS011;7960;50.908;4.204;2022-10-26T06:49:26;5.07;;;2.70;;
15716;SDS011;7960;50.908;4.204;2022-10-26T06:51:56;5.03;;;2.77;;
15716;SDS011;7960;50.908;4.204;2022-10-26T06:54:27;5.57;;;2.80;;
15716;SDS011;7960;50.908;4.204;2022-10-26T06:57:02;4.67;;;2.70;;
15716;SDS011;7960;50.908;4.204;2022-10-26T06:59:31;7.83;;;3.00;;
15716;SDS011;7960;50.908;4.204;2022-10-26T07:02:02;5.20;;;2.70;;
15716;SDS011;7960;50.908;4.204;2022-10-26T07:04:29;4.87;;;2.77;;
15716;SDS011;7960;50.908;4.204;2022-10-26T07:06:56;11.73;;;3.13;;
15716;SDS011;7960;50.908;4.204;2022-10-26T07:09:23;4.13;;;2.73;;
15716;SDS011;7960;50.908;4.204;2022-10-26T07:11:50;8.77;;;3.00;;
15716;SDS011;7960;50.908;4.204;2022-10-26T07:14:18;8.00;;;3.00;;
15716;SDS011;7960;50.908;4.204;2022-10-26T07:16:45;7.07;;;3.03;;
15716;SDS011;7960;50.908;4.204;2022-10-26T07:19:12;5.10;;;2.90;;
15716;SDS011;7960;50.908;4.204;2022-10-26T07:21:38;3.07;;;2.73;;
15716;SDS011;7960;50.908;4.204;2022-10-26T07:24:06;7.33;;;2.93;;
15716;SDS011;7960;50.908;4.204;2022-10-26T07:26:33;12.97;;;3.63;;
15716;SDS011;7960;50.908;4.204;2022-10-26T07:28:59;9.27;;;3.37;;
15716;SDS011;7960;50.908;4.204;2022-10-26T07:31:28;7.13;;;2.93;;
15716;SDS011;7960;50.908;4.204;2022-10-26T07:33:55;12.83;;;3.50;;
15716;SDS011;7960;50.908;4.204;2022-10-26T07:36:21;4.10;;;3.20;;
15716;SDS011;7960;50.908;4.204;2022-10-26T07:38:50;5.57;;;3.00;;
15716;SDS011;7960;50.908;4.204;2022-10-26T07:41:17;8.77;;;3.30;;
15716;SDS011;7960;50.908;4.204;2022-10-26T07:43:44;8.10;;;3.40;;
15716;SDS011;7960;50.908;4.204;2022-10-26T07:46:12;9.90;;;3.37;;
15716;SDS011;7960;50.908;4.204;2022-10-26T07:48:41;5.17;;;3.07;;
15716;SDS011;7960;50.908;4.204;2022-10-26T07:51:08;6.87;;;3.13;;
15716;SDS011;7960;50.908;4.204;2022-10-26T07:53:35;7.07;;;3.40;;
15716;SDS011;7960;50.908;4.204;2022-10-26T07:56:02;5.27;;;3.07;;
15716;SDS011;7960;50.908;4.204;2022-10-26T07:58:29;6.00;;;3.13;;
15716;SDS011;7960;50.908;4.204;2022-10-26T08:00:56;6.83;;;3.60;;
15716;SDS011;7960;50.908;4.204;2022-10-26T08:03:23;11.97;;;3.30;;
15716;SDS011;7960;50.908;4.204;2022-10-26T08:05:51;6.70;;;3.13;;
15716;SDS011;7960;50.908;4.204;2022-10-26T08:08:20;4.80;;;2.90;;
15716;SDS011;7960;50.908;4.204;2022-10-26T08:10:47;9.07;;;3.37;;
15716;SDS011;7960;50.908;4.204;2022-10-26T08:13:15;5.43;;;2.90;;
15716;SDS011;7960;50.908;4.204;2022-10-26T08:15:41;4.47;;;2.90;;
15716;SDS011;7960;50.908;4.204;2022-10-26T08:18:08;6.00;;;3.00;;
15716;SDS011;7960;50.908;4.204;2022-10-26T08:20:35;6.83;;;3.23;;
15716;SDS011;7960;50.908;4.204;2022-10-26T08:23:04;3.73;;;2.70;;
15716;SDS011;7960;50.908;4.204;2022-10-26T08:25:32;8.70;;;3.47;;
15716;SDS011;7960;50.908;4.204;2022-10-26T08:28:00;6.33;;;3.30;;
15716;SDS011;7960;50.908;4.204;2022-10-26T08:30:28;10.23;;;3.27;;
15716;SDS011;7960;50.908;4.204;2022-10-26T08:32:58;5.77;;;2.60;;
15716;SDS011;7960;50.908;4.204;2022-10-26T08:35:25;5.47;;;2.80;;
15716;SDS011;7960;50.908;4.204;2022-10-26T08:37:52;5.60;;;2.80;;
15716;SDS011;7960;50.908;4.204;2022-10-26T08:40:23;7.23;;;3.40;;
15716;SDS011;7960;50.908;4.204;2022-10-26T08:42:54;5.57;;;2.93;;
15716;SDS011;7960;50.908;4.204;2022-10-26T08:45:26;4.07;;;2.97;;
15716;SDS011;7960;50.908;4.204;2022-10-26T08:47:57;5.30;;;3.23;;
15716;SDS011;7960;50.908;4.204;2022-10-26T08:50:30;3.47;;;2.67;;
15716;SDS011;7960;50.908;4.204;2022-10-26T08:52:59;4.70;;;3.00;;
15716;SDS011;7960;50.908;4.204;2022-10-26T08:55:33;6.03;;;3.00;;
15716;SDS011;7960;50.908;4.204;2022-10-26T08:58:05;7.93;;;3.03;;
15716;SDS011;7960;50.908;4.204;2022-10-26T09:00:37;7.50;;;3.27;;
15716;SDS011;7960;50.908;4.204;2022-10-26T09:03:07;6.03;;;2.87;;
15716;SDS011;7960;50.908;4.204;2022-10-26T09:05:42;7.27;;;3.00;;
15716;SDS011;7960;50.908;4.204;2022-10-26T09:08:16;9.57;;;2.87;;
15716;SDS011;7960;50.908;4.204;2022-10-26T09:10:57;4.97;;;2.57;;
15716;SDS011;7960;50.908;4.204;2022-10-26T09:13:33;8.37;;;2.60;;
15716;SDS011;7960;50.908;4.204;2022-10-26T09:16:09;6.40;;;3.17;;
15716;SDS011;7960;50.908;4.204;2022-10-26T09:18:49;8.60;;;3.07;;
15716;SDS011;7960;50.908;4.204;2022-10-26T09:21:27;4.50;;;2.57;;
15716;SDS011;7960;50.908;4.204;2022-10-26T09:24:05;5.67;;;2.97;;
15716;SDS011;7960;50.908;4.204;2022-10-26T09:26:40;5.03;;;2.80;;
15716;SDS011;7960;50.908;4.204;2022-10-26T09:29:18;4.27;;;2.67;;
15716;SDS011;7960;50.908;4.204;2022-10-26T09:31:48;4.53;;;2.53;;
15716;SDS011;7960;50.908;4.204;2022-10-26T09:34:22;4.70;;;2.70;;
15716;SDS011;7960;50.908;4.204;2022-10-26T09:36:54;6.97;;;2.90;;
15716;SDS011;7960;50.908;4.204;2022-10-26T09:39:23;4.77;;;2.77;;
15716;SDS011;7960;50.908;4.204;2022-10-26T09:42:01;7.00;;;2.90;;
15716;SDS011;7960;50.908;4.204;2022-10-26T09:44:38;6.17;;;2.80;;
15716;SDS011;7960;50.908;4.204;2022-10-26T09:47:11;6.37;;;3.00;;
15716;SDS011;7960;50.908;4.204;2022-10-26T09:49:45;4.73;;;2.90;;
15716;SDS011;7960;50.908;4.204;2022-10-26T09:52:16;7.53;;;2.67;;
15716;SDS011;7960;50.908;4.204;2022-10-26T09:54:43;3.67;;;2.40;;
15716;SDS011;7960;50.908;4.204;2022-10-26T09:57:13;6.30;;;2.77;;
15716;SDS011;7960;50.908;4.204;2022-10-26T09:59:41;5.37;;;2.90;;
15716;SDS011;7960;50.908;4.204;2022-10-26T10:04:57;7.37;;;2.80;;
15716;SDS011;7960;50.908;4.204;2022-10-26T10:07:24;6.83;;;2.20;;
15716;SDS011;7960;50.908;4.204;2022-10-26T10:10:04;4.60;;;2.30;;
15716;SDS011;7960;50.908;4.204;2022-10-26T10:12:35;6.67;;;2.60;;
15716;SDS011;7960;50.908;4.204;2022-10-26T10:15:02;3.53;;;2.40;;
15716;SDS011;7960;50.908;4.204;2022-10-26T10:17:29;6.43;;;2.80;;
15716;SDS011;7960;50.908;4.204;2022-10-26T10:20:05;4.00;;;2.13;;
15716;SDS011;7960;50.908;4.204;2022-10-26T10:22:37;3.90;;;2.43;;
15716;SDS011;7960;50.908;4.204;2022-10-26T10:25:22;7.23;;;3.47;;
15716;SDS011;7960;50.908;4.204;2022-10-26T10:27:58;5.27;;;2.30;;
15716;SDS011;7960;50.908;4.204;2022-10-26T10:30:27;3.47;;;2.50;;
15716;SDS011;7960;50.908;4.204;2022-10-26T10:33:06;4.03;;;2.47;;
15716;SDS011;7960;50.908;4.204;2022-10-26T10:35:33;6.10;;;2.67;;
15716;SDS011;7960;50.908;4.204;2022-10-26T10:38:01;5.40;;;2.20;;
15716;SDS011;7960;50.908;4.204;2022-10-26T10:40:28;6.83;;;2.30;;
15716;SDS011;7960;50.908;4.204;2022-10-26T10:43:05;6.97;;;2.40;;
15716;SDS011;7960;50.908;4.204;2022-10-26T10:45:37;5.33;;;2.70;;
15716;SDS011;7960;50.908;4.204;2022-10-26T10:48:12;6.43;;;2.73;;
15716;SDS011;7960;50.908;4.204;2022-10-26T10:50:49;6.07;;;2.63;;
15716;SDS011;7960;50.908;4.204;2022-10-26T10:53:18;4.13;;;2.37;;
15716;SDS011;7960;50.908;4.204;2022-10-26T10:55:51;6.70;;;2.50;;
15716;SDS011;7960;50.908;4.204;2022-10-26T10:58:32;7.53;;;2.53;;
15716;SDS011;7960;50.908;4.204;2022-10-26T11:01:07;5.07;;;2.30;;
15716;SDS011;7960;50.908;4.204;2022-10-26T11:03:41;5.40;;;2.10;;
15716;SDS011;7960;50.908;4.204;2022-10-26T11:06:16;7.50;;;2.37;;
15716;SDS011;7960;50.908;4.204;2022-10-26T11:08:45;4.40;;;2.30;;
15716;SDS011;7960;50.908;4.204;2022-10-26T11:11:16;4.97;;;2.47;;
15716;SDS011;7960;50.908;4.204;2022-10-26T11:13:49;2.57;;;2.20;;
15716;SDS011;7960;50.908;4.204;2022-10-26T11:16:22;3.33;;;2.30;;
15716;SDS011;7960;50.908;4.204;2022-10-26T11:18:54;5.63;;;2.30;;
15716;SDS011;7960;50.908;4.204;2022-10-26T11:21:25;3.47;;;2.40;;
15716;SDS011;7960;50.908;4.204;2022-10-26T11:24:00;3.90;;;2.17;;
15716;SDS011;7960;50.908;4.204;2022-10-26T11:26:38;6.63;;;2.27;;
15716;SDS011;7960;50.908;4.204;2022-10-26T11:29:15;5.17;;;2.30;;
15716;SDS011;7960;50.908;4.204;2022-10-26T11:31:59;2.77;;;2.37;;
15716;SDS011;7960;50.908;4.204;2022-10-26T11:34:33;6.40;;;2.20;;
15716;SDS011;7960;50.908;4.204;2022-10-26T11:37:08;3.57;;;2.20;;
15716;SDS011;7960;50.908;4.204;2022-10-26T11:39:43;4.27;;;2.20;;
15716;SDS011;7960;50.908;4.204;2022-10-26T11:42:16;3.97;;;2.20;;
15716;SDS011;7960;50.908;4.204;2022-10-26T11:44:50;3.93;;;2.03;;
15716;SDS011;7960;50.908;4.204;2022-10-26T11:47:21;3.80;;;2.50;;
15716;SDS011;7960;50.908;4.204;2022-10-26T11:49:56;3.47;;;2.30;;
15716;SDS011;7960;50.908;4.204;2022-10-26T11:52:32;4.17;;;2.03;;
15716;SDS011;7960;50.908;4.204;2022-10-26T11:55:04;5.07;;;2.07;;
15716;SDS011;7960;50.908;4.204;2022-10-26T11:57:34;6.30;;;2.40;;
15716;SDS011;7960;50.908;4.204;2022-10-26T12:00:04;7.37;;;2.37;;
15716;SDS011;7960;50.908;4.204;2022-10-26T12:02:35;5.37;;;2.40;;
15716;SDS011;7960;50.908;4.204;2022-10-26T12:05:07;4.13;;;2.20;;
15716;SDS011;7960;50.908;4.204;2022-10-26T12:07:44;4.57;;;2.00;;
15716;SDS011;7960;50.908;4.204;2022-10-26T12:10:18;4.13;;;1.90;;
15716;SDS011;7960;50.908;4.204;2022-10-26T12:12:50;6.07;;;2.13;;
15716;SDS011;7960;50.908;4.204;2022-10-26T12:15:26;3.47;;;1.93;;
15716;SDS011;7960;50.908;4.204;2022-10-26T12:18:01;10.70;;;2.57;;
15716;SDS011;7960;50.908;4.204;2022-10-26T12:20:53;5.00;;;2.47;;
15716;SDS011;7960;50.908;4.204;2022-10-26T12:23:27;4.63;;;1.97;;
15716;SDS011;7960;50.908;4.204;2022-10-26T12:35:37;4.67;;;2.10;;
15716;SDS011;7960;50.908;4.204;2022-10-26T12:41:19;5.20;;;2.43;;
15716;SDS011;7960;50.908;4.204;2022-10-26T12:43:56;4.37;;;2.10;;
15716;SDS011;7960;50.908;4.204;2022-10-26T12:58:26;6.03;;;2.20;;
15716;SDS011;7960;50.908;4.204;2022-10-26T13:01:26;3.57;;;2.00;;
15716;SDS011;7960;50.908;4.204;2022-10-26T13:04:07;4.53;;;2.10;;
15716;SDS011;7960;50.908;4.204;2022-10-26T13:06:55;7.43;;;2.37;;
15716;SDS011;7960;50.908;4.204;2022-10-26T13:09:40;4.67;;;1.97;;
15716;SDS011;7960;50.908;4.204;2022-10-26T13:12:12;5.07;;;2.17;;
15716;SDS011;7960;50.908;4.204;2022-10-26T13:14:40;3.83;;;1.97;;
15716;SDS011;7960;50.908;4.204;2022-10-26T13:17:22;7.37;;;2.37;;
15716;SDS011;7960;50.908;4.204;2022-10-26T13:19:54;2.83;;;2.00;;
15716;SDS011;7960;50.908;4.204;2022-10-26T13:22:22;3.13;;;2.07;;
15716;SDS011;7960;50.908;4.204;2022-10-26T13:24:50;11.73;;;2.20;;
15716;SDS011;7960;50.908;4.204;2022-10-26T13:27:22;5.70;;;2.10;;
15716;SDS011;7960;50.908;4.204;2022-10-26T13:30:12;4.33;;;1.73;;
15716;SDS011;7960;50.908;4.204;2022-10-26T13:32:57;5.57;;;1.87;;
15716;SDS011;7960;50.908;4.204;2022-10-26T13:35:25;5.80;;;2.57;;
15716;SDS011;7960;50.908;4.204;2022-10-26T13:37:53;6.57;;;2.10;;
15716;SDS011;7960;50.908;4.204;2022-10-26T13:40:22;4.43;;;2.03;;
15716;SDS011;7960;50.908;4.204;2022-10-26T13:42:53;4.53;;;2.00;;
15716;SDS011;7960;50.908;4.204;2022-10-26T13:45:21;3.87;;;2.10;;
15716;SDS011;7960;50.908;4.204;2022-10-26T13:47:53;4.63;;;1.90;;
15716;SDS011;7960;50.908;4.204;2022-10-26T13:50:27;7.27;;;1.97;;
15716;SDS011;7960;50.908;4.204;2022-10-26T13:52:59;4.60;;;2.10;;
15716;SDS011;7960;50.908;4.204;2022-10-26T13:55:32;7.60;;;2.20;;
15716;SDS011;7960;50.908;4.204;2022-10-26T13:58:13;6.53;;;1.87;;
15716;SDS011;7960;50.908;4.204;2022-10-26T14:01:03;3.20;;;1.80;;
15716;SDS011;7960;50.908;4.204;2022-10-26T14:03:40;5.93;;;2.50;;
15716;SDS011;7960;50.908;4.204;2022-10-26T14:06:10;5.30;;;1.90;;
15716;SDS011;7960;50.908;4.204;2022-10-26T14:08:42;4.07;;;1.87;;
15716;SDS011;7960;50.908;4.204;2022-10-26T14:11:11;4.17;;;1.80;;
15716;SDS011;7960;50.908;4.204;2022-10-26T14:13:43;3.83;;;2.00;;
15716;SDS011;7960;50.908;4.204;2022-10-26T14:16:12;6.10;;;2.27;;
15716;SDS011;7960;50.908;4.204;2022-10-26T14:18:43;6.17;;;1.90;;
15716;SDS011;7960;50.908;4.204;2022-10-26T14:21:13;2.60;;;1.87;;
15716;SDS011;7960;50.908;4.204;2022-10-26T14:23:45;7.07;;;1.90;;
15716;SDS011;7960;50.908;4.204;2022-10-26T14:26:19;5.17;;;1.70;;
15716;SDS011;7960;50.908;4.204;2022-10-26T14:28:49;7.80;;;2.00;;
15716;SDS011;7960;50.908;4.204;2022-10-26T14:31:19;3.67;;;1.70;;
15716;SDS011;7960;50.908;4.204;2022-10-26T14:33:53;4.67;;;1.63;;
15716;SDS011;7960;50.908;4.204;2022-10-26T14:36:22;4.37;;;1.90;;
15716;SDS011;7960;50.908;4.204;2022-10-26T14:38:55;4.50;;;1.87;;
15716;SDS011;7960;50.908;4.204;2022-10-26T14:41:24;3.83;;;1.83;;
15716;SDS011;7960;50.908;4.204;2022-10-26T14:43:53;6.43;;;2.07;;
15716;SDS011;7960;50.908;4.204;2022-10-26T14:46:22;3.50;;;1.73;;
15716;SDS011;7960;50.908;4.204;2022-10-26T14:48:50;5.40;;;1.70;;
15716;SDS011;7960;50.908;4.204;2022-10-26T14:51:19;6.13;;;1.90;;
15716;SDS011;7960;50.908;4.204;2022-10-26T14:53:50;9.63;;;2.00;;
15716;SDS011;7960;50.908;4.204;2022-10-26T14:56:20;4.37;;;2.00;;
15716;SDS011;7960;50.908;4.204;2022-10-26T14:58:54;4.40;;;1.80;;
15716;SDS011;7960;50.908;4.204;2022-10-26T15:01:26;3.53;;;1.97;;
15716;SDS011;7960;50.908;4.204;2022-10-26T15:03:55;5.07;;;1.70;;
15716;SDS011;7960;50.908;4.204;2022-10-26T15:12:04;5.70;;;2.13;;
15716;SDS011;7960;50.908;4.204;2022-10-26T15:14:33;5.13;;;1.80;;
15716;SDS011;7960;50.908;4.204;2022-10-26T15:17:01;3.97;;;1.73;;
15716;SDS011;7960;50.908;4.204;2022-10-26T15:19:28;6.67;;;1.60;;
15716;SDS011;7960;50.908;4.204;2022-10-26T15:21:56;6.43;;;2.00;;
15716;SDS011;7960;50.908;4.204;2022-10-26T15:24:31;7.33;;;1.93;;
15716;SDS011;7960;50.908;4.204;2022-10-26T15:27:00;4.07;;;2.00;;
15716;SDS011;7960;50.908;4.204;2022-10-26T15:29:36;5.27;;;2.03;;
15716;SDS011;7960;50.908;4.204;2022-10-26T15:32:16;4.90;;;2.10;;
15716;SDS011;7960;50.908;4.204;2022-10-26T15:34:47;7.00;;;2.00;;
15716;SDS011;7960;50.908;4.204;2022-10-26T15:37:15;3.53;;;1.77;;
15716;SDS011;7960;50.908;4.204;2022-10-26T15:39:42;5.17;;;2.23;;
15716;SDS011;7960;50.908;4.204;2022-10-26T15:42:09;4.53;;;2.10;;
15716;SDS011;7960;50.908;4.204;2022-10-26T15:44:40;8.57;;;1.90;;
15716;SDS011;7960;50.908;4.204;2022-10-26T15:47:08;6.87;;;2.00;;
15716;SDS011;7960;50.908;4.204;2022-10-26T15:49:43;3.63;;;1.73;;
15716;SDS011;7960;50.908;4.204;2022-10-26T15:52:10;5.23;;;1.63;;
15716;SDS011;7960;50.908;4.204;2022-10-26T15:54:37;7.10;;;1.90;;
15716;SDS011;7960;50.908;4.204;2022-10-26T15:57:04;3.23;;;1.70;;
15716;SDS011;7960;50.908;4.204;2022-10-26T15:59:34;2.80;;;1.77;;
15716;SDS011;7960;50.908;4.204;2022-10-26T16:02:04;4.87;;;2.67;;
15716;SDS011;7960;50.908;4.204;2022-10-26T16:04:38;5.03;;;2.60;;